Canovanas, PR (00729)

4:02 PM AST on April 29, 2017 (GMT -0400)
Manejo de Emergencias Canovanas | | Change Station

Elev 56 ft 18.38 °N, 65.90 °W | Updated 14 seconds ago

Rain
Rain
77.2 °F
Feels Like 78 °F
N
5.0
Wind Variable Wind from ESE
Gusts 13.0 mph

Today
High -- | Low -- °F
--% Chance of Precip.
Yesterday
High -- | Low -- °F
Precip. -- in
Pressure 30.01 in
Visibility 9.0 miles
Clouds Mostly Cloudy 2400 ft
Mostly Cloudy 6000 ft
Overcast 9000 ft
Heat Index 78 °F
Dew Point 77 °F
Humidity 100%
Rainfall Not available.
Snow Depth Not available.
5:57 AM 6:44 PM
Waxing Crescent, 16% visible
METAR TJSJ 291956Z 08015KT 9SM -RA BKN024 BKN060 OVC090 27/24 A3002 RMK AO2 RAB52 SLP163 P0000 T02670239
Pressure 30.01 in
Visibility 9.0 miles
Clouds Mostly Cloudy 2400 ft
Mostly Cloudy 6000 ft
Overcast 9000 ft
Heat Index 78 °F
Dew Point 77 °F
Humidity 100%
Rainfall Not available.
Snow Depth Not available.
5:57 AM 6:44 PM
Waxing Crescent, 16% visible
METAR TJSJ 291956Z 08015KT 9SM -RA BKN024 BKN060 OVC090 27/24 A3002 RMK AO2 RAB52 SLP163 P0000 T02670239

Get Severe Weather Alerts

Thanks for signing up!

Be on the lookout for a verification email in your inbox.

You'll start receiving the daily forecast at 8 AM.

×

10-Day Weather Forecast

Almanac

Astronomy

Apr. 29, 2017 Rise Set
Actual Time
Civil Twilight
Nautical Twilight
Astronomical Twilight
Moon
Length of Visible Light
Length of Day
Tomorrow will be .
, % of the Moon is Illuminated

Today's Extremes

State Highs State Lows

Community

WunderPhotos

WunderBlog® & News

Nearby

Air Quality

  Air Quality AQ Index Pollutant
Not available.

Snow Depth

Station Depth Elevation

Earthquake Activity

City Distance Mag. Time & Date
Minimum magnitude displayed is 2.5.

Coastal Water Temperatures

Place Temperature

Stations

Nearby Weather Stations

Station Location Temp. Windchill Dew Point Humidity Wind Precip. Elev Updated Type
                   

Watches & Warnings

There are currently no watches in effect.